createdAt,value
2023-04-16T00:01:50.525Z,99.90
2023-04-16T00:04:17.459Z,99.90
2023-04-16T00:06:44.329Z,99.90
2023-04-16T00:09:11.259Z,99.90
2023-04-16T00:11:38.125Z,99.90
2023-04-16T00:14:04.978Z,99.90
2023-04-16T00:16:31.929Z,99.90
2023-04-16T00:18:58.757Z,99.90
2023-04-16T00:21:26.399Z,99.90
2023-04-16T00:23:53.158Z,99.90
2023-04-16T00:26:19.828Z,99.90
2023-04-16T00:28:46.526Z,99.90
2023-04-16T00:31:13.318Z,99.90
2023-04-16T00:33:40.070Z,99.90
2023-04-16T00:36:07.412Z,99.90
2023-04-16T00:38:34.200Z,99.90
2023-04-16T00:41:00.964Z,99.90
2023-04-16T00:43:27.772Z,99.90
2023-04-16T00:45:56.236Z,99.90
2023-04-16T00:48:22.994Z,99.90
2023-04-16T00:50:49.662Z,99.90
2023-04-16T00:53:16.413Z,99.90
2023-04-16T00:55:43.790Z,99.90
2023-04-16T00:58:10.480Z,99.90
2023-04-16T01:00:37.172Z,99.90
2023-04-16T01:03:04.664Z,99.90
2023-04-16T01:05:31.412Z,99.90
2023-04-16T01:08:01.238Z,99.90
2023-04-16T01:10:28.631Z,99.90
2023-04-16T01:12:55.253Z,99.90
2023-04-16T01:15:21.918Z,99.90
2023-04-16T01:17:49.135Z,99.90
2023-04-16T01:20:16.389Z,99.90
2023-04-16T01:22:43.042Z,99.90
2023-04-16T01:25:14.448Z,99.90
2023-04-16T01:27:41.252Z,99.90
2023-04-16T01:30:08.351Z,99.90
2023-04-16T01:32:35.069Z,99.90
2023-04-16T01:35:01.796Z,99.90
2023-04-16T01:37:28.883Z,99.90
2023-04-16T01:39:55.636Z,99.90
2023-04-16T01:42:22.620Z,99.90
2023-04-16T01:44:49.335Z,99.90
2023-04-16T01:47:16.004Z,99.90
2023-04-16T01:49:43.981Z,99.90
2023-04-16T01:52:10.844Z,99.90
2023-04-16T01:54:37.525Z,99.90
2023-04-16T01:57:04.359Z,99.90
2023-04-16T01:59:31.428Z,99.90
2023-04-16T02:02:03.644Z,99.90
2023-04-16T02:04:30.441Z,99.90
2023-04-16T02:06:57.500Z,99.90
2023-04-16T02:09:24.529Z,99.90
2023-04-16T02:11:51.242Z,99.90
2023-04-16T02:14:17.942Z,99.90
2023-04-16T02:16:44.933Z,99.90
2023-04-16T02:19:11.767Z,99.90
2023-04-16T02:21:38.511Z,99.90
2023-04-16T02:24:05.493Z,99.90
2023-04-16T02:26:32.287Z,99.90
2023-04-16T02:28:59.009Z,99.90
2023-04-16T02:31:25.893Z,99.90
2023-04-16T02:33:52.676Z,99.90
2023-04-16T02:36:19.437Z,99.90
2023-04-16T02:38:46.309Z,99.90
2023-04-16T02:41:13.094Z,99.90
2023-04-16T02:43:39.824Z,99.90
2023-04-16T02:46:06.722Z,99.90
2023-04-16T02:48:33.469Z,99.90
2023-04-16T02:51:00.750Z,99.90
2023-04-16T02:53:27.851Z,99.90
2023-04-16T02:55:55.358Z,99.90
2023-04-16T02:58:22.784Z,99.90
2023-04-16T03:00:49.670Z,99.90
2023-04-16T03:03:16.456Z,99.90
2023-04-16T03:05:43.233Z,99.90
2023-04-16T03:08:10.802Z,99.90
2023-04-16T03:10:37.760Z,99.90
2023-04-16T03:13:04.544Z,99.90
2023-04-16T03:15:31.388Z,99.90
2023-04-16T03:17:58.068Z,99.90
2023-04-16T03:20:24.787Z,99.90
2023-04-16T03:22:54.447Z,99.90
2023-04-16T03:25:21.565Z,99.90
2023-04-16T03:27:48.294Z,99.90
2023-04-16T03:30:16.423Z,99.90
2023-04-16T03:32:43.284Z,99.90
2023-04-16T03:35:10.372Z,99.90
2023-04-16T03:37:38.207Z,99.90
2023-04-16T03:40:08.309Z,99.90
2023-04-16T03:42:35.636Z,99.90
2023-04-16T03:45:02.280Z,99.90
2023-04-16T03:47:29.653Z,99.90
2023-04-16T03:49:56.703Z,99.90
2023-04-16T03:52:23.385Z,99.90
2023-04-16T03:54:50.238Z,99.90
2023-04-16T03:57:17.499Z,99.90
2023-04-16T03:59:44.671Z,99.90
2023-04-16T04:02:11.418Z,99.90
2023-04-16T04:04:38.269Z,99.90
2023-04-16T04:07:05.597Z,99.90
2023-04-16T04:09:34.052Z,99.90
2023-04-16T04:12:00.910Z,99.90
2023-04-16T04:14:28.253Z,99.90
2023-04-16T04:16:55.349Z,99.90
2023-04-16T04:19:22.057Z,99.90
2023-04-16T04:21:48.775Z,99.90
2023-04-16T04:24:15.704Z,99.90
2023-04-16T04:26:42.401Z,99.90
2023-04-16T04:29:09.241Z,99.90
2023-04-16T04:31:36.215Z,99.90
2023-04-16T04:34:02.974Z,99.90
2023-04-16T04:36:29.723Z,99.90
2023-04-16T04:38:56.491Z,99.90
2023-04-16T04:41:23.350Z,99.90
2023-04-16T04:43:50.138Z,99.90
2023-04-16T04:46:16.894Z,99.90
2023-04-16T04:48:43.606Z,99.90
2023-04-16T04:51:10.672Z,99.90
2023-04-16T04:53:37.347Z,99.90
2023-04-16T04:56:12.428Z,99.90
2023-04-16T04:58:40.587Z,99.90
2023-04-16T05:01:07.320Z,99.90
2023-04-16T05:03:34.117Z,99.90
2023-04-16T05:06:00.973Z,99.90
2023-04-16T05:08:27.770Z,99.90
2023-04-16T05:10:54.439Z,99.90
2023-04-16T05:13:21.210Z,99.90
2023-04-16T05:15:48.212Z,99.90
2023-04-16T05:18:15.223Z,99.90
2023-04-16T05:20:41.984Z,99.90
2023-04-16T05:23:08.744Z,99.90
2023-04-16T05:25:35.634Z,99.90
2023-04-16T05:28:02.345Z,99.90
2023-04-16T05:30:29.138Z,99.90
2023-04-16T05:32:56.010Z,99.90
2023-04-16T05:35:22.797Z,99.90
2023-04-16T05:37:49.494Z,99.90
2023-04-16T05:40:16.505Z,99.90
2023-04-16T05:42:43.255Z,99.90
2023-04-16T05:45:10.720Z,99.90
2023-04-16T05:47:37.463Z,99.90
2023-04-16T05:50:04.344Z,99.90
2023-04-16T05:52:31.079Z,99.90
2023-04-16T05:55:01.269Z,99.90
2023-04-16T05:57:30.719Z,99.90
2023-04-16T05:59:57.452Z,99.90
2023-04-16T06:02:24.412Z,99.90
2023-04-16T06:04:51.502Z,99.90
2023-04-16T06:07:18.225Z,99.90
2023-04-16T06:09:45.661Z,99.90
2023-04-16T06:12:12.350Z,99.90
2023-04-16T06:14:39.028Z,99.90
2023-04-16T06:17:05.666Z,99.90
2023-04-16T06:19:32.316Z,99.90
2023-04-16T06:21:59.697Z,99.90
2023-04-16T06:24:26.330Z,99.90
2023-04-16T06:26:54.427Z,99.90
2023-04-16T06:29:24.133Z,99.90
2023-04-16T06:31:57.339Z,99.90
2023-04-16T06:34:24.020Z,99.90
2023-04-16T06:36:50.716Z,99.90
2023-04-16T06:39:17.561Z,99.90
2023-04-16T06:41:44.250Z,99.90
2023-04-16T06:44:10.988Z,99.90
2023-04-16T06:46:37.793Z,99.90
2023-04-16T06:49:04.597Z,99.90
2023-04-16T06:51:31.384Z,99.90
2023-04-16T06:53:58.135Z,99.90
2023-04-16T06:56:24.865Z,99.90
2023-04-16T06:58:51.656Z,99.90
2023-04-16T07:01:18.775Z,99.90
2023-04-16T07:03:45.673Z,99.90
2023-04-16T07:06:12.406Z,99.90
2023-04-16T07:08:39.137Z,99.90
2023-04-16T07:11:05.934Z,99.90
2023-04-16T07:13:32.645Z,99.90
2023-04-16T07:15:59.336Z,99.90
2023-04-16T07:18:26.610Z,99.90
2023-04-16T07:20:53.258Z,99.90
2023-04-16T07:23:20.259Z,99.90
2023-04-16T07:25:47.316Z,99.90
2023-04-16T07:28:16.617Z,99.90
2023-04-16T07:30:43.562Z,99.90
2023-04-16T07:33:10.664Z,99.90
2023-04-16T07:35:37.688Z,99.90
2023-04-16T07:38:04.438Z,99.90
2023-04-16T07:40:31.108Z,99.90
2023-04-16T07:42:57.744Z,98.80
2023-04-16T07:45:24.596Z,99.90
2023-04-16T07:47:51.883Z,98.90
2023-04-16T07:50:19.600Z,96.80
2023-04-16T07:52:48.656Z,96.40
2023-04-16T07:55:15.806Z,93.70
2023-04-16T07:57:42.525Z,93.50
2023-04-16T08:00:10.305Z,93.60
2023-04-16T08:02:37.452Z,91.80
2023-04-16T08:05:04.488Z,92.50
2023-04-16T08:07:32.788Z,91.80
2023-04-16T08:10:01.306Z,85.00
2023-04-16T08:12:29.092Z,81.10
2023-04-16T08:14:55.965Z,82.40
2023-04-16T08:17:23.219Z,79.40
2023-04-16T08:19:49.986Z,79.70
2023-04-16T08:22:17.272Z,73.30
2023-04-16T08:24:44.224Z,73.30
2023-04-16T08:27:19.076Z,74.30
2023-04-16T08:29:47.033Z,70.10
2023-04-16T08:32:13.990Z,70.00
2023-04-16T08:34:40.698Z,64.10
2023-04-16T08:37:07.359Z,60.00
2023-04-16T08:39:35.155Z,59.00
2023-04-16T08:42:04.310Z,50.40
2023-04-16T08:44:37.875Z,51.50
2023-04-16T08:47:05.055Z,48.90
2023-04-16T08:49:31.805Z,47.30
2023-04-16T08:51:58.463Z,42.50
2023-04-16T08:55:07.497Z,41.20
2023-04-16T08:57:37.784Z,31.90
2023-04-16T09:00:04.739Z,24.50
2023-04-16T09:02:31.976Z,34.40
2023-04-16T09:04:59.865Z,34.30
2023-04-16T09:07:28.880Z,33.80
2023-04-16T09:09:55.844Z,26.10
2023-04-16T09:12:25.706Z,29.30
2023-04-16T09:14:52.479Z,23.20
2023-04-16T09:17:19.450Z,24.60
2023-04-16T09:19:46.407Z,24.50
2023-04-16T09:22:13.065Z,25.60
2023-04-16T09:24:39.788Z,21.30
2023-04-16T09:27:06.547Z,20.90
2023-04-16T09:29:34.779Z,22.70
2023-04-16T09:32:08.802Z,23.30
2023-04-16T09:34:47.662Z,15.20
2023-04-16T09:37:18.346Z,20.50
2023-04-16T09:39:45.468Z,18.50
2023-04-16T09:42:12.218Z,19.20
2023-04-16T09:44:38.993Z,18.60
2023-04-16T09:47:09.205Z,18.70
2023-04-16T09:49:36.279Z,20.00
2023-04-16T09:52:02.993Z,18.00
2023-04-16T09:54:29.907Z,18.80
2023-04-16T09:56:56.867Z,18.40
2023-04-16T09:59:24.056Z,16.50
2023-04-16T10:01:53.200Z,16.50
2023-04-16T10:04:24.039Z,9.10
2023-04-16T10:07:06.805Z,15.00
2023-04-16T10:09:37.567Z,11.50
2023-04-16T10:12:04.309Z,10.00
2023-04-16T10:14:31.259Z,14.70
2023-04-16T10:16:58.188Z,11.50
2023-04-16T10:19:28.104Z,11.20
2023-04-16T10:21:55.698Z,11.30
2023-04-16T10:24:22.938Z,11.20
2023-04-16T10:26:50.347Z,9.60
2023-04-16T10:29:17.152Z,10.00
2023-04-16T10:31:43.899Z,11.10
2023-04-16T10:34:10.906Z,11.90
2023-04-16T10:36:37.840Z,11.40
2023-04-16T10:39:04.632Z,12.00
2023-04-16T10:41:33.404Z,12.10
2023-04-16T10:44:09.642Z,11.50
2023-04-16T10:46:40.770Z,8.80
2023-04-16T10:49:33.926Z,8.10
2023-04-16T10:52:03.734Z,9.20
2023-04-16T10:54:30.973Z,11.60
2023-04-16T10:56:59.070Z,10.70
2023-04-16T10:59:27.970Z,9.80
2023-04-16T11:01:56.403Z,9.30
2023-04-16T11:04:27.867Z,5.10
2023-04-16T11:07:14.005Z,7.00
2023-04-16T11:09:53.450Z,6.10
2023-04-16T11:12:22.287Z,2.70
2023-04-16T11:14:51.041Z,7.40
2023-04-16T11:17:18.331Z,6.90
2023-04-16T11:19:45.193Z,6.80
2023-04-16T11:22:17.335Z,6.40
2023-04-16T11:24:45.257Z,3.10
2023-04-16T11:27:16.158Z,5.10
2023-04-16T11:29:45.039Z,6.40
2023-04-16T11:32:21.880Z,6.90
2023-04-16T11:34:48.657Z,5.00
2023-04-16T11:37:15.503Z,4.00
2023-04-16T11:39:51.916Z,3.90
2023-04-16T11:42:22.832Z,1.50
2023-04-16T11:44:54.465Z,1.60
2023-04-16T11:47:21.981Z,3.00
2023-04-16T11:49:48.895Z,2.50
2023-04-16T11:52:28.340Z,2.20
2023-04-16T11:54:55.520Z,1.00
2023-04-16T11:57:26.648Z,2.80
2023-04-16T12:00:02.513Z,6.00
2023-04-16T12:02:40.183Z,5.10
2023-04-16T12:05:33.750Z,3.00
2023-04-16T12:08:02.141Z,1.20
2023-04-16T12:10:29.493Z,4.10
2023-04-16T12:13:10.425Z,4.50
2023-04-16T12:15:47.352Z,1.00
2023-04-16T12:18:16.367Z,1.00
2023-04-16T12:20:44.063Z,1.00
2023-04-16T12:23:15.053Z,1.00
2023-04-16T12:25:43.243Z,2.60
2023-04-16T12:28:10.198Z,1.70
2023-04-16T12:30:50.114Z,2.10
2023-04-16T12:33:17.854Z,1.00
2023-04-16T12:35:45.065Z,2.10
2023-04-16T12:38:12.076Z,2.10
2023-04-16T12:40:38.884Z,1.10
2023-04-16T12:43:05.629Z,1.20
2023-04-16T12:45:32.304Z,1.00
2023-04-16T12:47:59.395Z,1.00
2023-04-16T12:50:26.740Z,1.00
2023-04-16T12:52:55.556Z,1.00
2023-04-16T12:55:22.287Z,1.00
2023-04-16T12:57:49.864Z,1.00
2023-04-16T13:00:16.788Z,1.00
2023-04-16T13:02:43.833Z,1.30
2023-04-16T13:05:11.009Z,2.10
2023-04-16T13:07:37.828Z,1.00
2023-04-16T13:10:05.949Z,1.00
2023-04-16T13:12:32.739Z,1.00
2023-04-16T13:14:59.517Z,1.20
2023-04-16T13:17:26.238Z,1.40
2023-04-16T13:19:53.183Z,1.00
2023-04-16T13:22:19.938Z,1.00
2023-04-16T13:24:46.649Z,1.20
2023-04-16T13:27:16.044Z,1.00
2023-04-16T13:29:42.914Z,1.00
2023-04-16T13:32:09.816Z,1.00
2023-04-16T13:34:36.580Z,1.00
2023-04-16T13:37:03.292Z,1.00
2023-04-16T13:39:30.005Z,1.00
2023-04-16T13:41:56.658Z,1.00
2023-04-16T13:44:23.670Z,1.00
2023-04-16T13:46:50.711Z,1.00
2023-04-16T13:49:17.429Z,1.00
2023-04-16T13:51:44.758Z,1.00
2023-04-16T13:54:12.009Z,1.00
2023-04-16T13:56:38.663Z,1.00
2023-04-16T13:59:05.335Z,1.00
2023-04-16T14:01:32.712Z,1.00
2023-04-16T14:04:01.949Z,1.00
2023-04-16T14:06:29.333Z,1.00
2023-04-16T14:08:56.033Z,1.00
2023-04-16T14:11:23.562Z,1.00
2023-04-16T14:13:50.293Z,1.00
2023-04-16T14:16:17.654Z,1.00
2023-04-16T14:18:44.627Z,1.00
2023-04-16T14:21:11.352Z,1.00
2023-04-16T14:23:38.084Z,1.00
2023-04-16T14:26:04.862Z,1.00
2023-04-16T14:28:31.621Z,1.00
2023-04-16T14:30:58.343Z,1.00
2023-04-16T14:33:25.102Z,1.00
2023-04-16T14:35:52.166Z,1.00
2023-04-16T14:38:18.897Z,1.00
2023-04-16T14:40:45.728Z,1.00
2023-04-16T14:43:12.439Z,1.00
2023-04-16T14:45:39.294Z,1.00
2023-04-16T14:48:06.291Z,1.00
2023-04-16T14:50:37.816Z,1.00
2023-04-16T14:53:05.594Z,1.00
2023-04-16T14:55:32.492Z,1.00
2023-04-16T14:57:59.881Z,1.00
2023-04-16T15:00:27.470Z,1.00
2023-04-16T15:02:54.993Z,1.00
2023-04-16T15:05:22.101Z,1.60
2023-04-16T15:07:48.930Z,1.00
2023-04-16T15:10:15.577Z,1.00
2023-04-16T15:12:42.205Z,1.70
2023-04-16T15:15:09.477Z,1.00
2023-04-16T15:17:36.243Z,1.00
2023-04-16T15:20:05.846Z,1.00
2023-04-16T15:22:32.999Z,1.30
2023-04-16T15:24:59.975Z,1.60
2023-04-16T15:27:27.014Z,1.00
2023-04-16T15:29:54.048Z,1.30
2023-04-16T15:32:20.991Z,1.50
2023-04-16T15:34:47.728Z,1.00
2023-04-16T15:37:14.960Z,1.50
2023-04-16T15:39:42.022Z,1.50
2023-04-16T15:42:08.810Z,1.70
2023-04-16T15:44:35.461Z,1.00
2023-04-16T15:47:02.229Z,1.30
2023-04-16T15:49:29.006Z,1.70
2023-04-16T15:51:56.024Z,1.20
2023-04-16T15:54:22.751Z,1.50
2023-04-16T15:56:49.425Z,1.80
2023-04-16T15:59:16.910Z,1.20
2023-04-16T16:01:43.734Z,1.90
2023-04-16T16:04:10.590Z,1.70
2023-04-16T16:06:38.111Z,1.80
2023-04-16T16:09:04.978Z,2.60
2023-04-16T16:11:32.629Z,3.00
2023-04-16T16:14:01.444Z,3.60
2023-04-16T16:16:28.655Z,3.60
2023-04-16T16:18:55.725Z,2.50
2023-04-16T16:21:22.662Z,3.20
2023-04-16T16:23:49.432Z,3.40
2023-04-16T16:26:16.103Z,3.30
2023-04-16T16:28:44.572Z,3.40
2023-04-16T16:31:12.552Z,2.90
2023-04-16T16:33:40.391Z,2.90
2023-04-16T16:36:10.553Z,2.70
2023-04-16T16:38:37.592Z,3.20
2023-04-16T16:41:04.278Z,3.00
2023-04-16T16:43:31.518Z,4.00
2023-04-16T16:45:58.417Z,4.50
2023-04-16T16:48:25.274Z,4.70
2023-04-16T16:50:52.050Z,5.20
2023-04-16T16:53:18.798Z,4.70
2023-04-16T16:55:45.748Z,5.40
2023-04-16T16:58:12.479Z,7.00
2023-04-16T17:00:39.363Z,7.20
2023-04-16T17:03:06.334Z,7.00
2023-04-16T17:05:33.208Z,6.90
2023-04-16T17:07:59.932Z,7.20
2023-04-16T17:10:27.036Z,7.60
2023-04-16T17:12:53.835Z,8.40
2023-04-16T17:15:21.917Z,8.40
2023-04-16T17:17:49.044Z,8.20
2023-04-16T17:20:16.023Z,7.70
2023-04-16T17:22:43.351Z,8.00
2023-04-16T17:25:10.513Z,8.80
2023-04-16T17:27:37.273Z,9.20
2023-04-16T17:30:05.390Z,8.50
2023-04-16T17:32:32.703Z,8.10
2023-04-16T17:35:00.219Z,8.10
2023-04-16T17:37:27.347Z,8.20
2023-04-16T17:39:54.101Z,8.80
2023-04-16T17:42:21.063Z,9.00
2023-04-16T17:44:47.822Z,10.30
2023-04-16T17:47:14.572Z,8.70
2023-04-16T17:49:41.321Z,8.50
2023-04-16T17:52:08.001Z,9.40
2023-04-16T17:54:34.726Z,9.30
2023-04-16T17:57:02.043Z,9.30
2023-04-16T17:59:28.991Z,9.30
2023-04-16T18:01:56.779Z,10.00
2023-04-16T18:04:23.709Z,9.70
2023-04-16T18:06:50.830Z,9.80
2023-04-16T18:09:19.189Z,10.20
2023-04-16T18:11:45.938Z,10.10
2023-04-16T18:14:16.606Z,10.60
2023-04-16T18:16:43.423Z,10.30
2023-04-16T18:19:10.493Z,10.30
2023-04-16T18:21:37.244Z,10.20
2023-04-16T18:24:04.190Z,10.20
2023-04-16T18:26:31.267Z,10.50
2023-04-16T18:29:00.396Z,10.80
2023-04-16T18:31:27.163Z,10.90
2023-04-16T18:33:57.994Z,11.20
2023-04-16T18:36:26.561Z,11.70
2023-04-16T18:39:01.799Z,11.30
2023-04-16T18:41:29.845Z,11.90
2023-04-16T18:43:56.852Z,12.80
2023-04-16T18:46:26.749Z,13.00
2023-04-16T18:48:53.589Z,12.60
2023-04-16T18:51:20.295Z,13.20
2023-04-16T18:53:46.971Z,13.10
2023-04-16T18:56:13.681Z,13.40
2023-04-16T18:58:40.436Z,14.10
2023-04-16T19:01:11.266Z,14.70
2023-04-16T19:03:38.555Z,14.90
2023-04-16T19:06:06.089Z,15.10
2023-04-16T19:08:33.017Z,15.60
2023-04-16T19:10:59.705Z,15.80
2023-04-16T19:13:26.515Z,16.00
2023-04-16T19:15:59.341Z,17.00
2023-04-16T19:18:26.328Z,17.70
2023-04-16T19:20:59.499Z,17.50
2023-04-16T19:23:27.118Z,18.70
2023-04-16T19:25:56.176Z,18.60
2023-04-16T19:28:24.052Z,19.20
2023-04-16T19:30:51.730Z,19.30
2023-04-16T19:33:18.951Z,19.60
2023-04-16T19:35:46.309Z,19.50
2023-04-16T19:38:13.116Z,20.10
2023-04-16T19:40:40.378Z,20.30
2023-04-16T19:43:07.128Z,20.60
2023-04-16T19:45:33.918Z,21.10
2023-04-16T19:48:00.825Z,21.60
2023-04-16T19:50:27.684Z,21.80
2023-04-16T19:52:54.400Z,23.90
2023-04-16T19:55:22.627Z,22.80
2023-04-16T19:57:49.298Z,24.00
2023-04-16T20:00:17.026Z,23.70
2023-04-16T20:02:43.894Z,24.30
2023-04-16T20:05:10.627Z,24.90
2023-04-16T20:07:37.296Z,25.10
2023-04-16T20:10:04.758Z,25.40
2023-04-16T20:12:32.088Z,25.60
2023-04-16T20:14:58.822Z,25.20
2023-04-16T20:17:25.989Z,25.90
2023-04-16T20:19:52.650Z,26.20
2023-04-16T20:22:19.991Z,26.30
2023-04-16T20:24:47.772Z,27.80
2023-04-16T20:27:15.299Z,27.40
2023-04-16T20:29:42.255Z,27.90
2023-04-16T20:32:09.203Z,28.50
2023-04-16T20:34:37.928Z,28.60
2023-04-16T20:37:04.765Z,29.00
2023-04-16T20:39:34.322Z,29.40
2023-04-16T20:42:04.140Z,29.20
2023-04-16T20:44:40.153Z,35.60
2023-04-16T20:47:08.212Z,30.90
2023-04-16T20:49:34.931Z,32.20
2023-04-16T20:52:02.382Z,31.10
2023-04-16T20:54:29.928Z,32.20
2023-04-16T20:56:57.449Z,32.80
2023-04-16T20:59:24.513Z,32.80
2023-04-16T21:01:52.229Z,32.90
2023-04-16T21:04:19.211Z,34.70
2023-04-16T21:06:46.189Z,33.60
2023-04-16T21:09:13.343Z,34.00
2023-04-16T21:11:40.452Z,35.90
2023-04-16T21:14:07.200Z,34.20
2023-04-16T21:16:34.093Z,36.20
2023-04-16T21:19:00.892Z,34.40
2023-04-16T21:21:27.607Z,34.50
2023-04-16T21:23:54.364Z,34.40
2023-04-16T21:26:21.281Z,34.00
2023-04-16T21:28:48.277Z,35.00
2023-04-16T21:31:15.079Z,35.70
2023-04-16T21:33:41.808Z,35.70
2023-04-16T21:36:08.799Z,37.00
2023-04-16T21:38:35.536Z,36.60
2023-04-16T21:41:02.270Z,37.40
2023-04-16T21:43:30.575Z,38.90
2023-04-16T21:45:57.281Z,38.10
2023-04-16T21:48:24.497Z,37.80
2023-04-16T21:50:58.225Z,38.30
2023-04-16T21:53:26.244Z,39.70
2023-04-16T21:55:52.875Z,39.10
2023-04-16T21:58:20.094Z,39.70
2023-04-16T22:00:47.309Z,39.70
2023-04-16T22:03:14.477Z,41.80
2023-04-16T22:05:41.755Z,42.30
2023-04-16T22:08:23.211Z,39.70
2023-04-16T22:10:51.224Z,40.30
2023-04-16T22:13:18.300Z,39.70
2023-04-16T22:15:45.047Z,41.40
2023-04-16T22:18:12.110Z,41.90
2023-04-16T22:20:39.709Z,40.90
2023-04-16T22:23:06.747Z,42.20
2023-04-16T22:25:34.031Z,47.70
2023-04-16T22:28:01.648Z,49.50
2023-04-16T22:30:28.450Z,53.60
2023-04-16T22:32:55.306Z,52.20
2023-04-16T22:35:22.004Z,56.30
2023-04-16T22:37:48.988Z,57.60
2023-04-16T22:40:15.974Z,60.60
2023-04-16T22:42:42.699Z,61.80
2023-04-16T22:45:09.824Z,62.40
2023-04-16T22:47:36.774Z,64.40
2023-04-16T22:50:03.512Z,63.80
2023-04-16T22:52:30.405Z,63.90
2023-04-16T22:54:57.134Z,64.80
2023-04-16T22:57:25.580Z,66.60
2023-04-16T22:59:53.018Z,66.70
2023-04-16T23:02:20.676Z,70.60
2023-04-16T23:04:47.969Z,68.40
2023-04-16T23:07:15.520Z,69.20
2023-04-16T23:09:42.364Z,68.10
2023-04-16T23:12:09.148Z,67.50
2023-04-16T23:14:36.863Z,68.60
2023-04-16T23:17:03.783Z,70.30
2023-04-16T23:19:31.714Z,69.70
2023-04-16T23:21:58.706Z,68.00
2023-04-16T23:24:25.554Z,68.20
2023-04-16T23:26:52.708Z,70.60
2023-04-16T23:29:20.549Z,73.70
2023-04-16T23:31:47.671Z,74.40
2023-04-16T23:34:14.856Z,72.00
2023-04-16T23:36:41.702Z,73.60
2023-04-16T23:39:08.433Z,78.30
2023-04-16T23:41:35.234Z,79.60
2023-04-16T23:44:01.930Z,82.00
2023-04-16T23:46:29.234Z,82.10
2023-04-16T23:48:55.960Z,79.00
2023-04-16T23:51:22.636Z,82.40
2023-04-16T23:53:49.333Z,81.10
2023-04-16T23:56:16.588Z,78.90
2023-04-16T23:58:43.301Z,78.90
